createdAt,value
2018-09-16T00:01:50.124Z,11.78
2018-09-16T00:06:50.634Z,10.98
2018-09-16T00:11:50.820Z,10.88
2018-09-16T00:16:50.155Z,10.78
2018-09-16T00:21:50.590Z,10.68
2018-09-16T00:26:50.167Z,10.88
2018-09-16T00:31:50.480Z,11.28
2018-09-16T00:36:50.967Z,11.38
2018-09-16T00:41:50.211Z,10.68
2018-09-16T00:46:50.497Z,10.49
2018-09-16T00:51:50.951Z,10.49
2018-09-16T00:56:50.583Z,10.49
2018-09-16T01:01:50.890Z,10.39
2018-09-16T01:06:50.377Z,10.29
2018-09-16T01:11:50.649Z,10.29
2018-09-16T01:16:50.896Z,10.68
2018-09-16T01:21:50.398Z,10.88
2018-09-16T01:26:50.957Z,10.58
2018-09-16T01:31:50.224Z,10.19
2018-09-16T01:36:50.695Z,9.99
2018-09-16T01:41:50.926Z,10.19
2018-09-16T01:46:50.229Z,10.09
2018-09-16T01:51:50.723Z,10.29
2018-09-16T01:56:50.280Z,10.29
2018-09-16T02:01:50.582Z,9.89
2018-09-16T02:06:51.104Z,9.69
2018-09-16T02:11:50.377Z,9.69
2018-09-16T02:16:50.620Z,9.49
2018-09-16T02:21:50.108Z,9.59
2018-09-16T02:26:50.677Z,9.59
2018-09-16T02:31:50.961Z,9.79
2018-09-16T02:36:50.436Z,9.69
2018-09-16T02:41:50.763Z,9.59
2018-09-16T02:46:50.988Z,9.89
2018-09-16T02:51:50.452Z,9.99
2018-09-16T02:56:50.050Z,9.69
2018-09-16T03:01:50.320Z,9.49
2018-09-16T03:06:50.897Z,9.59
2018-09-16T03:11:50.953Z,9.49
2018-09-16T03:16:50.328Z,9.29
2018-09-16T03:21:50.834Z,9.39
2018-09-16T03:26:50.457Z,9.59
2018-09-16T03:31:50.701Z,9.39
2018-09-16T03:36:50.188Z,9.39
2018-09-16T03:41:50.420Z,9.39
2018-09-16T03:46:51.105Z,9.19
2018-09-16T03:51:50.192Z,9.39
2018-09-16T03:56:50.772Z,9.29
2018-09-16T04:01:50.096Z,9.09
2018-09-16T04:06:50.602Z,9.09
2018-09-16T04:11:50.844Z,8.99
2018-09-16T04:16:50.114Z,8.99
2018-09-16T04:21:50.621Z,8.99
2018-09-16T04:26:50.190Z,8.69
2018-09-16T04:31:50.497Z,8.89
2018-09-16T04:36:50.944Z,8.99
2018-09-16T04:41:50.153Z,8.79
2018-09-16T04:46:50.429Z,8.79
2018-09-16T04:51:50.943Z,8.99
2018-09-16T04:56:50.547Z,9.29
2018-09-16T05:01:50.879Z,9.19
2018-09-16T05:06:50.325Z,8.89
2018-09-16T05:11:50.093Z,8.99
2018-09-16T05:16:50.426Z,8.69
2018-09-16T05:21:50.866Z,8.49
2018-09-16T05:26:50.448Z,8.59
2018-09-16T05:31:50.720Z,8.69
2018-09-16T05:36:50.811Z,8.59
2018-09-16T05:41:50.030Z,8.79
2018-09-16T05:46:50.322Z,8.89
2018-09-16T05:51:50.739Z,8.89
2018-09-16T05:56:50.369Z,8.89
2018-09-16T06:01:50.736Z,8.89
2018-09-16T06:06:50.183Z,9.19
2018-09-16T06:11:50.376Z,9.39
2018-09-16T06:16:50.707Z,9.59
2018-09-16T06:21:50.156Z,9.79
2018-09-16T06:26:50.734Z,9.99
2018-09-16T06:31:50.008Z,10.09
2018-09-16T06:36:50.492Z,9.99
2018-09-16T06:41:50.701Z,10.09
2018-09-16T06:46:50.009Z,10.29
2018-09-16T06:51:50.455Z,10.29
2018-09-16T06:56:50.116Z,10.49
2018-09-16T07:01:50.394Z,10.68
2018-09-16T07:06:50.875Z,10.78
2018-09-16T07:11:50.073Z,10.68
2018-09-16T07:16:50.375Z,10.78
2018-09-16T07:21:50.842Z,10.98
2018-09-16T07:26:50.813Z,11.08
2018-09-16T07:31:50.731Z,11.58
2018-09-16T07:36:50.196Z,11.88
2018-09-16T07:41:50.412Z,12.18
2018-09-16T07:46:50.703Z,12.28
2018-09-16T07:51:50.193Z,12.48
2018-09-16T07:56:50.782Z,12.78
2018-09-16T08:01:50.079Z,13.08
2018-09-16T08:06:50.562Z,13.38
2018-09-16T08:11:50.807Z,13.68
2018-09-16T08:16:50.078Z,14.18
2018-09-16T08:21:50.575Z,14.58
2018-09-16T08:26:50.118Z,14.88
2018-09-16T08:31:50.410Z,15.38
2018-09-16T08:36:50.852Z,15.58
2018-09-16T08:41:50.061Z,15.97
2018-09-16T08:46:50.347Z,16.02
2018-09-16T08:51:50.806Z,16.21
2018-09-16T08:56:50.403Z,16.40
2018-09-16T09:01:50.654Z,16.72
2018-09-16T09:06:50.179Z,16.94
2018-09-16T09:11:50.411Z,17.07
2018-09-16T09:16:50.663Z,17.28
2018-09-16T09:21:50.141Z,17.40
2018-09-16T09:26:51.334Z,17.58
2018-09-16T09:31:50.088Z,17.73
2018-09-16T09:36:50.492Z,18.02
2018-09-16T09:41:50.690Z,17.93
2018-09-16T09:46:50.071Z,18.26
2018-09-16T09:51:50.463Z,18.39
2018-09-16T09:56:51.091Z,18.40
2018-09-16T10:01:50.352Z,18.35
2018-09-16T10:06:50.816Z,18.57
2018-09-16T10:11:50.111Z,18.53
2018-09-16T10:16:50.295Z,18.59
2018-09-16T10:21:50.783Z,18.81
2018-09-16T10:26:50.389Z,19.01
2018-09-16T10:31:50.680Z,18.85
2018-09-16T10:36:50.160Z,19.16
2018-09-16T10:41:50.344Z,19.10
2018-09-16T10:46:50.638Z,19.13
2018-09-16T10:51:50.151Z,19.01
2018-09-16T10:56:50.684Z,18.82
2018-09-16T11:01:50.016Z,18.86
2018-09-16T11:06:50.530Z,19.08
2018-09-16T11:11:50.740Z,19.19
2018-09-16T11:16:50.017Z,19.43
2018-09-16T11:21:50.472Z,19.41
2018-09-16T11:26:50.042Z,19.52
2018-09-16T11:31:50.330Z,19.33
2018-09-16T11:36:50.809Z,19.13
2018-09-16T11:41:50.058Z,19.47
2018-09-16T11:46:50.315Z,19.75
2018-09-16T11:51:50.762Z,19.66
2018-09-16T11:56:50.326Z,19.93
2018-09-16T12:01:50.782Z,19.67
2018-09-16T12:06:50.203Z,20.34
2018-09-16T12:11:50.388Z,20.04
2018-09-16T12:16:50.660Z,19.80
2018-09-16T12:21:50.216Z,19.79
2018-09-16T12:26:50.723Z,19.70
2018-09-16T12:31:50.074Z,19.49
2018-09-16T12:36:50.478Z,19.46
2018-09-16T12:41:50.693Z,19.58
2018-09-16T12:46:50.084Z,19.69
2018-09-16T12:51:50.473Z,19.65
2018-09-16T12:56:50.214Z,19.56
2018-09-16T13:01:50.390Z,19.55
2018-09-16T13:06:50.887Z,19.38
2018-09-16T13:11:50.098Z,19.76
2018-09-16T13:16:50.410Z,20.02
2018-09-16T13:21:50.877Z,19.72
2018-09-16T13:26:50.429Z,19.85
2018-09-16T13:31:50.736Z,19.45
2018-09-16T13:36:50.278Z,19.87
2018-09-16T13:41:50.418Z,20.10
2018-09-16T13:46:50.747Z,20.39
2018-09-16T13:51:50.278Z,19.89
2018-09-16T13:56:50.759Z,20.07
2018-09-16T14:01:50.121Z,19.93
2018-09-16T14:06:50.596Z,20.29
2018-09-16T14:11:50.764Z,20.01
2018-09-16T14:16:50.147Z,19.73
2018-09-16T14:21:50.571Z,19.58
2018-09-16T14:26:50.163Z,19.33
2018-09-16T14:31:50.448Z,19.66
2018-09-16T14:36:50.915Z,19.62
2018-09-16T14:41:50.170Z,19.83
2018-09-16T14:46:50.399Z,19.82
2018-09-16T14:51:50.864Z,19.69
2018-09-16T14:56:50.712Z,19.74
2018-09-16T15:01:50.771Z,19.79
2018-09-16T15:06:50.341Z,19.62
2018-09-16T15:11:50.480Z,19.38
2018-09-16T15:16:50.785Z,19.67
2018-09-16T15:21:50.325Z,19.72
2018-09-16T15:26:50.969Z,19.58
2018-09-16T15:31:50.214Z,19.76
2018-09-16T15:36:50.647Z,19.27
2018-09-16T15:41:50.802Z,19.32
2018-09-16T15:46:50.231Z,19.27
2018-09-16T15:51:50.527Z,19.37
2018-09-16T15:56:50.505Z,19.46
2018-09-16T16:01:50.412Z,19.07
2018-09-16T16:06:50.912Z,19.32
2018-09-16T16:11:50.249Z,19.92
2018-09-16T16:16:50.425Z,19.28
2018-09-16T16:21:50.864Z,19.28
2018-09-16T16:26:50.472Z,19.48
2018-09-16T16:31:50.763Z,19.70
2018-09-16T16:36:50.272Z,20.03
2018-09-16T16:41:50.452Z,19.51
2018-09-16T16:46:50.742Z,19.74
2018-09-16T16:51:50.304Z,19.89
2018-09-16T16:56:50.823Z,20.32
2018-09-16T17:01:51.167Z,20.16
2018-09-16T17:06:50.601Z,20.13
2018-09-16T17:11:50.788Z,20.15
2018-09-16T17:16:50.311Z,20.20
2018-09-16T17:21:50.566Z,20.15
2018-09-16T17:26:50.326Z,20.42
2018-09-16T17:31:50.479Z,20.07
2018-09-16T17:36:50.893Z,19.90
2018-09-16T17:41:50.231Z,19.46
2018-09-16T17:46:50.451Z,19.59
2018-09-16T17:51:50.872Z,19.27
2018-09-16T17:56:51.034Z,19.33
2018-09-16T18:01:50.731Z,19.15
2018-09-16T18:06:50.385Z,18.62
2018-09-16T18:11:50.557Z,18.35
2018-09-16T18:16:51.216Z,18.16
2018-09-16T18:21:50.388Z,18.44
2018-09-16T18:26:50.867Z,18.56
2018-09-16T18:31:50.286Z,17.95
2018-09-16T18:36:50.590Z,17.83
2018-09-16T18:41:50.831Z,18.31
2018-09-16T18:46:50.320Z,17.98
2018-09-16T18:51:50.579Z,17.56
2018-09-16T18:56:51.240Z,17.80
2018-09-16T19:01:50.652Z,17.85
2018-09-16T19:06:50.970Z,17.36
2018-09-16T19:11:51.180Z,17.25
2018-09-16T19:16:50.591Z,17.58
2018-09-16T19:21:50.915Z,17.57
2018-09-16T19:26:50.591Z,17.63
2018-09-16T19:31:50.785Z,17.50
2018-09-16T19:36:50.440Z,17.62
2018-09-16T19:41:55.493Z,17.62
2018-09-16T19:46:50.756Z,17.57
2018-09-16T19:51:50.393Z,17.20
2018-09-16T19:56:50.787Z,17.43
2018-09-16T20:01:51.137Z,17.04
2018-09-16T20:06:50.664Z,16.48
2018-09-16T20:11:50.810Z,16.28
2018-09-16T20:16:50.386Z,16.38
2018-09-16T20:21:50.665Z,16.08
2018-09-16T20:26:50.400Z,16.28
2018-09-16T20:31:51.523Z,16.68
2018-09-16T20:36:50.984Z,16.68
2018-09-16T20:41:50.284Z,16.68
2018-09-16T20:46:50.515Z,15.98
2018-09-16T20:51:50.881Z,15.78
2018-09-16T20:56:50.575Z,16.18
2018-09-16T21:01:50.768Z,16.68
2018-09-16T21:06:50.840Z,16.68
2018-09-16T21:11:50.600Z,16.28
2018-09-16T21:16:50.781Z,15.58
2018-09-16T21:21:50.462Z,15.68
2018-09-16T21:26:50.825Z,14.98
2018-09-16T21:31:50.426Z,14.78
2018-09-16T21:36:50.625Z,14.48
2018-09-16T21:41:50.802Z,14.68
2018-09-16T21:46:50.985Z,15.58
2018-09-16T21:51:50.644Z,15.38
2018-09-16T21:56:50.483Z,14.58
2018-09-16T22:01:50.572Z,14.18
2018-09-16T22:06:50.950Z,14.28
2018-09-16T22:11:50.380Z,14.08
2018-09-16T22:16:50.612Z,14.28
2018-09-16T22:21:50.924Z,14.68
2018-09-16T22:26:50.596Z,14.48
2018-09-16T22:31:50.940Z,14.58
2018-09-16T22:36:50.545Z,13.48
2018-09-16T22:41:50.707Z,13.98
2018-09-16T22:46:50.898Z,14.68
2018-09-16T22:51:50.432Z,14.08
2018-09-16T22:56:50.879Z,13.68
2018-09-16T23:01:50.428Z,13.68
2018-09-16T23:06:50.729Z,13.38
2018-09-16T23:11:50.317Z,13.48
2018-09-16T23:16:50.457Z,12.78
2018-09-16T23:21:50.750Z,12.98
2018-09-16T23:26:50.473Z,13.48
2018-09-16T23:31:50.703Z,13.78
2018-09-16T23:36:51.038Z,12.78
2018-09-16T23:41:50.488Z,12.38
2018-09-16T23:46:50.677Z,12.58
2018-09-16T23:51:50.982Z,13.58
2018-09-16T23:56:50.698Z,14.08
